createdAt,value
2022-12-23T00:03:20.892Z,60.04
2022-12-23T00:08:30.862Z,65.40
2022-12-23T00:13:58.859Z,59.82
2022-12-23T00:19:06.850Z,60.51
2022-12-23T00:24:14.877Z,58.58
2022-12-23T00:29:22.867Z,60.52
2022-12-23T00:34:30.850Z,61.75
2022-12-23T00:40:04.272Z,63.10
2022-12-23T00:45:23.864Z,63.05
2022-12-23T00:50:31.903Z,57.35
2022-12-23T00:55:39.889Z,59.85
2022-12-23T01:01:06.973Z,59.45
2022-12-23T01:06:14.939Z,60.06
2022-12-23T01:11:22.959Z,59.52
2022-12-23T01:16:31.005Z,58.57
2022-12-23T01:21:39.898Z,59.72
2022-12-23T01:26:47.992Z,56.40
2022-12-23T01:31:56.018Z,55.76
2022-12-23T01:37:03.955Z,59.60
2022-12-23T01:42:37.954Z,60.42
2022-12-23T01:48:17.003Z,57.95
2022-12-23T01:53:44.934Z,60.30
2022-12-23T01:59:03.948Z,59.51
2022-12-23T02:04:17.008Z,57.78
2022-12-23T02:09:46.974Z,58.75
2022-12-23T02:15:32.022Z,57.32
2022-12-23T02:21:07.037Z,57.81
2022-12-23T02:26:53.149Z,55.36
2022-12-23T02:32:11.989Z,54.86
2022-12-23T02:37:48.099Z,54.48
2022-12-23T02:43:16.121Z,55.99
2022-12-23T02:48:37.096Z,61.02
2022-12-23T02:53:53.092Z,60.27
2022-12-23T02:59:07.126Z,59.82
2022-12-23T03:04:16.089Z,59.98
2022-12-23T03:09:38.170Z,58.43
2022-12-23T03:15:08.184Z,59.07
2022-12-23T03:20:57.158Z,58.74
2022-12-23T03:26:19.115Z,57.83
2022-12-23T03:31:33.221Z,60.57
2022-12-23T03:36:49.121Z,56.14
2022-12-23T03:42:04.242Z,54.27
2022-12-23T03:47:27.157Z,57.11
2022-12-23T03:52:42.166Z,59.10
2022-12-23T03:58:10.170Z,55.40
2022-12-23T04:03:32.148Z,55.54
2022-12-23T04:08:44.152Z,53.14
2022-12-23T04:13:55.136Z,53.85
2022-12-23T04:19:03.171Z,52.39
2022-12-23T04:24:12.133Z,52.88
2022-12-23T04:29:20.123Z,52.32
2022-12-23T04:34:28.168Z,54.27
2022-12-23T04:39:36.191Z,53.26
2022-12-23T04:44:44.237Z,53.34
2022-12-23T04:49:52.169Z,51.41
2022-12-23T04:55:00.221Z,52.95
2022-12-23T05:00:08.245Z,50.65
2022-12-23T05:05:16.244Z,50.31
2022-12-23T05:10:24.212Z,48.71
2022-12-23T05:15:32.210Z,51.74
2022-12-23T05:20:40.202Z,50.23
2022-12-23T05:25:48.219Z,48.59
2022-12-23T05:30:56.258Z,49.18
2022-12-23T05:36:05.261Z,50.22
2022-12-23T05:41:13.229Z,52.25
2022-12-23T05:46:26.227Z,54.94
2022-12-23T05:51:35.291Z,55.19
2022-12-23T05:56:43.240Z,52.20
2022-12-23T06:01:51.403Z,50.42
2022-12-23T06:07:13.256Z,53.75
2022-12-23T06:12:21.331Z,53.75
2022-12-23T06:17:29.282Z,51.53
2022-12-23T06:22:38.342Z,55.64
2022-12-23T06:27:46.258Z,54.80
2022-12-23T06:32:54.340Z,53.38
2022-12-23T06:38:02.292Z,55.49
2022-12-23T06:43:10.299Z,56.98
2022-12-23T06:48:18.320Z,55.22
2022-12-23T06:53:26.329Z,51.39
2022-12-23T06:58:34.345Z,53.02
2022-12-23T07:03:42.397Z,52.64
2022-12-23T07:08:50.345Z,53.07
2022-12-23T07:13:58.378Z,54.78
2022-12-23T07:19:06.411Z,56.62
2022-12-23T07:24:15.374Z,58.11
2022-12-23T07:29:23.370Z,56.46
2022-12-23T07:34:31.423Z,57.67
2022-12-23T07:39:39.413Z,57.66
2022-12-23T07:44:48.395Z,56.37
2022-12-23T07:49:56.365Z,56.29
2022-12-23T07:55:04.395Z,57.38
2022-12-23T08:00:17.408Z,54.75
2022-12-23T08:05:32.463Z,59.44
2022-12-23T08:10:47.884Z,58.95
2022-12-23T08:16:02.452Z,54.55
2022-12-23T08:21:13.475Z,55.80
2022-12-23T08:26:32.468Z,53.70
2022-12-23T08:31:40.492Z,56.47
2022-12-23T08:36:49.491Z,52.21
2022-12-23T08:41:57.470Z,52.19
2022-12-23T08:46:59.244Z,51.47
2022-12-23T08:52:01.135Z,54.65
2022-12-23T08:57:02.905Z,58.18
2022-12-23T09:02:04.831Z,56.04
2022-12-23T09:07:06.698Z,57.69
2022-12-23T09:12:08.435Z,56.72
2022-12-23T09:17:10.263Z,58.02
2022-12-23T09:22:12.023Z,59.16
2022-12-23T09:27:13.818Z,55.43
2022-12-23T09:32:15.563Z,55.98
2022-12-23T09:37:17.606Z,55.67
2022-12-23T09:42:47.344Z,53.89
2022-12-23T09:47:50.464Z,55.14
2022-12-23T09:53:06.411Z,54.77
2022-12-23T09:58:27.396Z,53.50
2022-12-23T10:04:10.214Z,52.94
2022-12-23T10:09:14.256Z,52.92
2022-12-23T10:14:25.267Z,54.78
2022-12-23T10:19:41.699Z,52.78
2022-12-23T10:24:46.059Z,54.78
2022-12-23T10:29:47.941Z,59.50
2022-12-23T10:35:12.148Z,53.42
2022-12-23T10:40:23.942Z,53.80
2022-12-23T10:45:51.749Z,54.87
2022-12-23T10:51:03.318Z,57.49
2022-12-23T10:56:07.506Z,58.63
2022-12-23T11:06:21.570Z,66.17
2022-12-23T11:11:23.249Z,60.48
2022-12-23T11:16:27.783Z,64.90
2022-12-23T11:21:31.171Z,62.29
2022-12-23T11:26:33.078Z,58.51
2022-12-23T11:31:36.748Z,57.92
2022-12-23T11:36:38.483Z,60.95
2022-12-23T11:41:44.637Z,56.68
2022-12-23T11:46:46.262Z,60.63
2022-12-23T11:52:00.782Z,60.57
2022-12-23T11:57:06.182Z,59.91
2022-12-23T12:02:15.693Z,59.01
2022-12-23T12:07:19.673Z,58.39
2022-12-23T12:12:22.143Z,59.81
2022-12-23T12:17:47.112Z,60.95
2022-12-23T12:22:55.349Z,61.02
2022-12-23T12:28:02.851Z,61.07
2022-12-23T12:33:13.841Z,58.24
2022-12-23T12:38:21.644Z,61.19
2022-12-23T12:43:31.764Z,58.91
2022-12-23T12:48:56.847Z,60.10
2022-12-23T12:54:29.721Z,61.43
2022-12-23T12:59:40.296Z,63.20
2022-12-23T13:04:56.878Z,60.08
2022-12-23T13:10:10.692Z,57.83
2022-12-23T13:15:18.353Z,58.97
2022-12-23T13:20:38.133Z,65.11
2022-12-23T13:26:08.628Z,62.71
2022-12-23T13:31:31.677Z,63.35
2022-12-23T13:36:54.300Z,58.72
2022-12-23T13:42:04.646Z,64.26
2022-12-23T13:47:29.343Z,60.36
2022-12-23T13:52:37.194Z,59.29
2022-12-23T13:57:41.758Z,59.51
2022-12-23T14:03:05.637Z,61.93
2022-12-23T14:08:19.428Z,60.57
2022-12-23T14:13:24.811Z,61.88
2022-12-23T14:18:56.363Z,61.72
2022-12-23T14:24:35.184Z,60.69
2022-12-23T14:30:07.882Z,62.87
2022-12-23T14:35:21.354Z,61.71
2022-12-23T14:40:38.073Z,59.61
2022-12-23T14:45:43.496Z,58.38
2022-12-23T14:50:57.507Z,60.52
2022-12-23T14:56:08.085Z,60.56
2022-12-23T15:01:13.313Z,59.64
2022-12-23T15:06:32.482Z,60.11
2022-12-23T15:11:36.379Z,58.79
2022-12-23T15:16:40.409Z,57.35
2022-12-23T15:21:43.964Z,57.68
2022-12-23T15:27:24.581Z,59.89
2022-12-23T15:32:17.391Z,57.51
2022-12-23T15:37:25.755Z,58.96
2022-12-23T15:42:39.776Z,55.01
2022-12-23T15:47:43.089Z,55.46
2022-12-23T15:52:47.821Z,55.10
2022-12-23T15:57:50.968Z,55.38
2022-12-23T16:03:05.505Z,55.54
2022-12-23T16:08:21.733Z,55.71
2022-12-23T16:13:28.454Z,54.89
2022-12-23T16:18:32.793Z,57.82
2022-12-23T16:23:37.140Z,55.68
2022-12-23T16:28:42.505Z,57.17
2022-12-23T16:33:53.562Z,54.63
2022-12-23T16:39:07.597Z,54.23
2022-12-23T16:44:09.729Z,57.00
2022-12-23T16:49:18.686Z,56.41
2022-12-23T16:54:21.102Z,56.71
2022-12-23T16:59:24.923Z,57.04
2022-12-23T17:04:26.651Z,58.61
2022-12-23T17:09:28.399Z,57.69
2022-12-23T17:14:30.085Z,59.70
2022-12-23T17:19:32.953Z,57.78
2022-12-23T17:24:34.786Z,59.59
2022-12-23T17:29:36.468Z,55.89
2022-12-23T17:34:38.760Z,54.23
2022-12-23T17:39:41.003Z,53.32
2022-12-23T17:44:44.142Z,54.18
2022-12-23T17:49:46.595Z,56.26
2022-12-23T17:54:49.762Z,54.13
2022-12-23T17:59:53.082Z,52.84
2022-12-23T18:04:54.960Z,54.54
2022-12-23T18:09:56.651Z,54.35
2022-12-23T18:14:58.469Z,53.74
2022-12-23T18:20:00.152Z,53.71
2022-12-23T18:25:01.908Z,52.75
2022-12-23T18:30:04.034Z,52.66
2022-12-23T18:35:33.090Z,51.84
2022-12-23T18:40:34.916Z,51.31
2022-12-23T18:45:50.702Z,52.02
2022-12-23T18:50:54.381Z,51.68
2022-12-23T18:55:56.161Z,53.74
2022-12-23T19:00:58.083Z,51.91
2022-12-23T19:06:06.615Z,52.51
2022-12-23T19:11:20.534Z,53.27
2022-12-23T19:16:22.636Z,53.26
2022-12-23T19:21:24.327Z,50.73
2022-12-23T19:26:26.085Z,53.44
2022-12-23T19:31:29.746Z,52.61
2022-12-23T19:36:31.695Z,51.77
2022-12-23T19:41:33.388Z,53.51
2022-12-23T19:46:35.265Z,50.93
2022-12-23T19:51:37.138Z,51.31
2022-12-23T19:56:38.794Z,53.07
2022-12-23T20:01:40.489Z,51.01
2022-12-23T20:06:43.086Z,50.15
2022-12-23T20:11:47.862Z,51.19
2022-12-23T20:16:50.218Z,51.73
2022-12-23T20:21:52.220Z,51.02
2022-12-23T20:26:53.907Z,51.47
2022-12-23T20:31:55.594Z,52.23
2022-12-23T20:36:57.248Z,50.49
2022-12-23T20:41:59.018Z,50.99
2022-12-23T20:47:00.808Z,51.35
2022-12-23T20:52:02.703Z,49.03
2022-12-23T20:57:04.386Z,49.68
2022-12-23T21:02:06.337Z,50.95
2022-12-23T21:07:08.580Z,47.58
2022-12-23T21:12:10.305Z,49.61
2022-12-23T21:17:12.037Z,49.46
2022-12-23T21:22:13.709Z,49.32
2022-12-23T21:27:15.418Z,50.28
2022-12-23T21:32:17.125Z,50.29
2022-12-23T21:37:18.872Z,48.89
2022-12-23T21:42:20.612Z,50.17
2022-12-23T21:47:22.336Z,50.24
2022-12-23T21:52:24.081Z,48.61
2022-12-23T21:57:25.687Z,48.79
2022-12-23T22:02:27.479Z,51.39
2022-12-23T22:07:29.271Z,48.70
2022-12-23T22:12:30.989Z,50.22
2022-12-23T22:17:32.620Z,49.10
2022-12-23T22:22:34.267Z,49.10
2022-12-23T22:27:35.935Z,49.20
2022-12-23T22:32:42.283Z,51.32
2022-12-23T22:37:44.291Z,47.96
2022-12-23T22:42:45.995Z,50.29
2022-12-23T22:47:47.687Z,50.00
2022-12-23T22:52:49.326Z,51.76
2022-12-23T22:57:50.985Z,47.77
2022-12-23T23:02:52.759Z,50.10
2022-12-23T23:07:54.778Z,49.67
2022-12-23T23:12:56.473Z,48.53
2022-12-23T23:17:58.207Z,50.30
2022-12-23T23:22:59.864Z,49.75
2022-12-23T23:28:01.543Z,48.19
2022-12-23T23:33:03.226Z,47.86
2022-12-23T23:38:04.933Z,47.16
2022-12-23T23:43:06.613Z,45.71
2022-12-23T23:48:10.040Z,45.86
2022-12-23T23:53:14.273Z,47.78
2022-12-23T23:58:15.960Z,46.80
